Time;durP1;ratioP1;P1;durP2;ratioP2;P2;SDS_P1;SDS_P2;PMS_P1;PMS_P2;Temp;Humidity;BMP_temperature;BMP_pressure;BME280_temperature;BME280_humidity;BME280_pressure;Samples;Min_cycle;Max_cycle;Signal;HPM_P1;HPM_P2
2023/06/08 00:01:35;;;;;;;10.35;5.57;;;;;;;;;;4965053;28;20094;-70
2023/06/08 00:04:05;;;;;;;17.58;6.95;;;;;;;;;;4956311;28;20042;-70
2023/06/08 00:06:33;;;;;;;14.30;7.25;;;12.60;99.90;;;;;;4951820;28;20038;-68
2023/06/08 00:09:01;;;;;;;14.90;6.55;;;12.30;99.90;;;;;;4969459;28;20043;-68
2023/06/08 00:11:28;;;;;;;16.98;7.05;;;;;;;;;;4954065;28;20522;-68
2023/06/08 00:13:55;;;;;;;14.88;5.93;;;;;;;;;;4970112;28;20049;-68
2023/06/08 00:16:21;;;;;;;14.93;6.05;;;;;;;;;;4972444;28;20053;-68
2023/06/08 00:18:49;;;;;;;16.15;6.68;;;;;;;;;;4972342;28;20039;-68
2023/06/08 00:21:16;;;;;;;18.23;6.82;;;;;;;;;;4968970;28;20086;-68
2023/06/08 00:23:42;;;;;;;14.55;6.32;;;;;;;;;;4954879;28;20129;-68
2023/06/08 00:26:08;;;;;;;15.80;6.97;;;;;;;;;;4960364;28;20489;-68
2023/06/08 00:28:34;;;;;;;16.77;6.57;;;;;;;;;;4972535;28;20038;-68
2023/06/08 00:31:00;;;;;;;15.68;6.45;;;;;;;;;;4971099;28;20482;-68
2023/06/08 00:33:26;;;;;;;14.10;6.10;;;;;;;;;;4970916;28;20391;-68
2023/06/08 00:35:54;;;;;;;16.98;6.80;;;;;;;;;;4970022;28;20047;-68
2023/06/08 00:38:20;;;;;;;13.45;5.95;;;;;;;;;;4971972;28;20117;-69
2023/06/08 00:40:46;;;;;;;16.42;6.35;;;;;;;;;;4961710;28;20039;-69
2023/06/08 00:43:12;;;;;;;14.60;6.80;;;;;;;;;;4954644;28;20038;-71
2023/06/08 00:45:38;;;;;;;12.27;6.97;;;;;;;;;;4958367;28;20061;-71
2023/06/08 00:48:05;;;;;;;19.90;7.63;;;;;;;;;;4944956;28;20394;-71
2023/06/08 00:50:32;;;;;;;15.02;7.13;;;;;;;;;;4955920;28;20042;-71
2023/06/08 00:52:58;;;;;;;22.10;7.13;;;;;;;;;;4954343;28;20077;-71
2023/06/08 00:55:25;;;;;;;13.57;6.97;;;;;;;;;;4972163;28;20118;-71
2023/06/08 00:57:51;;;;;;;17.05;7.32;;;12.60;99.90;;;;;;4971302;28;20047;-71
2023/06/08 01:00:17;;;;;;;16.75;7.15;;;;;;;;;;4960847;28;20047;-71
2023/06/08 01:02:44;;;;;;;16.58;6.93;;;;;;;;;;4955054;28;20038;-71
2023/06/08 01:05:12;;;;;;;14.80;7.10;;;;;;;;;;4971842;28;20499;-71
2023/06/08 01:07:56;;;;;;;17.70;6.85;;;12.70;99.90;;;;;;4946307;28;20043;-71
2023/06/08 01:10:33;;;;;;;14.65;6.38;;;12.40;99.90;;;;;;4959598;28;20042;-71
2023/06/08 01:13:36;;;;;;;13.82;6.05;;;12.20;99.90;;;;;;4952753;28;20043;-71
2023/06/08 01:16:04;;;;;;;14.80;6.77;;;12.30;99.90;;;;;;4951528;28;20181;-71
2023/06/08 01:18:33;;;;;;;22.90;6.57;;;12.50;99.90;;;;;;4970858;28;20659;-71
2023/06/08 01:21:11;;;;;;;19.48;6.53;;;;;;;;;;4970104;28;20039;-71
2023/06/08 01:24:15;;;;;;;15.07;6.47;;;12.30;99.90;;;;;;4962172;28;20050;-71
2023/06/08 01:26:57;;;;;;;16.67;6.70;;;;;;;;;;4971453;28;20054;-71
2023/06/08 01:29:27;;;;;;;15.57;6.82;;;;;;;;;;4971289;28;20530;-68
2023/06/08 01:31:53;;;;;;;16.27;7.22;;;;;;;;;;4972381;28;20142;-68
2023/06/08 01:34:19;;;;;;;22.98;7.45;;;;;;;;;;4946958;28;20050;-68
2023/06/08 01:37:04;;;;;;;20.08;7.85;;;12.50;99.90;;;;;;4969076;28;20034;-68
2023/06/08 01:39:48;;;;;;;15.85;6.15;;;;;;;;;;4953895;28;20062;-69
2023/06/08 01:42:20;;;;;;;14.65;6.85;;;12.30;99.90;;;;;;4956397;28;20035;-69
2023/06/08 01:44:55;;;;;;;22.73;6.95;;;12.50;99.90;;;;;;4963137;28;20058;-68
2023/06/08 01:47:23;;;;;;;16.98;6.60;;;;;;;;;;4965825;28;20079;-68
2023/06/08 01:49:49;;;;;;;19.67;7.25;;;12.50;99.90;;;;;;4953620;28;20518;-68
2023/06/08 01:52:16;;;;;;;15.57;7.18;;;;;;;;;;4969642;28;20117;-68
2023/06/08 01:54:42;;;;;;;14.15;7.03;;;;;;;;;;4953592;28;20047;-68
2023/06/08 01:57:08;;;;;;;16.35;6.47;;;;;;;;;;4954571;28;20522;-68
2023/06/08 01:59:34;;;;;;;15.23;6.22;;;;;;;;;;4953479;28;20126;-68
2023/06/08 02:02:00;;;;;;;14.02;5.90;;;;;;;;;;4953448;28;20039;-68
2023/06/08 02:04:26;;;;;;;13.57;5.95;;;;;;;;;;4953490;28;20078;-69
2023/06/08 02:06:52;;;;;;;17.75;6.63;;;;;;;;;;4937617;28;20571;-68
2023/06/08 02:09:18;;;;;;;15.75;5.63;;;;;;;;;;4937460;28;20122;-68
2023/06/08 02:11:44;;;;;;;11.48;5.40;;;;;;;;;;4961512;28;20043;-69
2023/06/08 02:14:10;;;;;;;8.40;4.88;;;;;;;;;;4955220;28;20479;-69
2023/06/08 02:16:38;;;;;;;13.27;5.85;;;;;;;;;;4941117;28;20502;-69
2023/06/08 02:19:04;;;;;;;15.05;5.65;;;;;;;;;;4958379;28;20047;-68
2023/06/08 02:21:30;;;;;;;16.65;6.47;;;;;;;;;;4957333;28;20039;-68
2023/06/08 02:23:56;;;;;;;10.32;5.63;;;;;;;;;;4965991;28;20407;-69
2023/06/08 02:26:23;;;;;;;12.95;6.13;;;;;;;;;;4941604;28;20102;-69
2023/06/08 02:28:49;;;;;;;19.50;6.57;;;;;;;;;;4970681;28;20157;-69
2023/06/08 02:31:15;;;;;;;16.52;6.70;;;;;;;;;;4973123;28;20046;-70
2023/06/08 02:33:41;;;;;;;16.88;6.25;;;;;;;;;;4974310;28;20078;-70
2023/06/08 02:36:09;;;;;;;15.65;6.20;;;;;;;;;;4971046;28;20042;-70
2023/06/08 02:38:35;;;;;;;15.05;6.38;;;;;;;;;;4966339;28;20054;-70
2023/06/08 02:41:01;;;;;;;14.07;6.05;;;;;;;;;;4956759;28;20039;-70
2023/06/08 02:43:27;;;;;;;10.77;6.15;;;;;;;;;;4961972;28;20105;-70
2023/06/08 02:45:53;;;;;;;14.75;6.50;;;;;;;;;;4960021;28;20054;-71
2023/06/08 02:48:19;;;;;;;15.52;6.95;;;;;;;;;;4964636;28;20046;-71
2023/06/08 02:50:45;;;;;;;12.13;6.68;;;;;;;;;;4974074;28;20042;-71
2023/06/08 02:53:11;;;;;;;14.32;6.63;;;;;;;;;;4973489;28;20074;-71
2023/06/08 02:55:37;;;;;;;13.23;6.25;;;;;;;;;;4970937;28;20045;-70
2023/06/08 02:58:04;;;;;;;14.70;6.05;;;;;;;;;;4961947;28;20089;-70
2023/06/08 03:00:30;;;;;;;13.07;6.20;;;;;;;;;;4973921;28;20039;-70
2023/06/08 03:03:00;;;;;;;14.60;6.68;;;12.60;99.90;;;;;;4990130;28;20043;-71
2023/06/08 03:05:26;;;;;;;15.10;6.22;;;;;;;;;;4961259;28;20558;-71
2023/06/08 03:07:53;;;;;;;16.35;6.88;;;;;;;;;;4973538;28;20039;-71
2023/06/08 03:10:19;;;;;;;16.30;5.97;;;12.50;99.90;;;;;;4940233;28;20070;-71
2023/06/08 03:12:45;;;;;;;13.35;5.90;;;;;;;;;;4956135;28;20047;-71
2023/06/08 03:15:11;;;;;;;10.98;5.97;;;;;;;;;;4968795;28;20054;-71
2023/06/08 03:17:38;;;;;;;10.80;6.18;;;;;;;;;;4965794;28;20039;-71
2023/06/08 03:20:04;;;;;;;14.63;7.07;;;;;;;;;;4958736;28;20043;-72
2023/06/08 03:22:34;;;;;;;16.02;6.82;;;;;;;;;;4956034;28;20484;-73
2023/06/08 03:25:00;;;;;;;14.13;7.28;;;;;;;;;;4942918;28;20042;-72
2023/06/08 03:27:26;;;;;;;16.50;7.93;;;;;;;;;;4973043;28;20494;-71
2023/06/08 03:29:52;;;;;;;19.98;8.02;;;;;;;;;;4963929;28;20054;-75
2023/06/08 03:32:18;;;;;;;20.30;8.35;;;11.60;99.90;;;;;;4956387;28;20050;-71
2023/06/08 03:34:44;;;;;;;15.80;8.80;;;;;;;;;;4947137;28;20451;-71
2023/06/08 03:37:11;;;;;;;16.88;7.80;;;;;;;;;;4973117;28;20122;-71
2023/06/08 03:39:37;;;;;;;15.18;8.05;;;;;;;;;;4972105;28;20366;-70
2023/06/08 03:42:03;;;;;;;20.80;9.25;;;;;;;;;;4951220;28;20043;-71
2023/06/08 03:44:29;;;;;;;19.33;8.73;;;;;;;;;;4957023;28;20055;-70
2023/06/08 03:46:55;;;;;;;18.58;8.48;;;;;;;;;;4973092;28;20051;-71
2023/06/08 03:49:22;;;;;;;18.63;8.32;;;;;;;;;;4964295;28;20035;-71
2023/06/08 03:51:48;;;;;;;22.00;8.90;;;;;;;;;;4973056;28;20034;-72
2023/06/08 03:54:15;;;;;;;21.60;8.77;;;;;;;;;;4972622;28;20474;-72
2023/06/08 03:56:41;;;;;;;19.55;8.90;;;;;;;;;;4972632;28;20423;-72
2023/06/08 03:59:07;;;;;;;14.55;8.10;;;;;;;;;;4968458;28;20055;-72
2023/06/08 04:01:35;;;;;;;15.27;7.25;;;13.70;99.90;;;;;;4955433;28;20031;-72
2023/06/08 04:04:01;;;;;;;16.05;6.90;;;;;;;;;;4968656;28;20050;-72
2023/06/08 04:06:33;;;;;;;17.42;7.22;;;;;;;;;;4971456;28;20034;-72
2023/06/08 04:09:00;;;;;;;18.08;6.88;;;;;;;;;;4970507;28;20038;-72
2023/06/08 04:11:26;;;;;;;16.13;6.40;;;;;;;;;;4955246;28;20039;-72
2023/06/08 04:13:52;;;;;;;16.05;7.63;;;;;;;;;;4941876;28;20046;-72
2023/06/08 04:16:18;;;;;;;12.60;6.05;;;;;;;;;;4965197;28;20476;-72
2023/06/08 04:18:44;;;;;;;15.68;6.72;;;;;;;;;;4957954;28;20493;-72
2023/06/08 04:21:12;;;;;;;17.92;6.38;;;;;;;;;;4973570;28;20368;-72
2023/06/08 04:23:38;;;;;;;15.00;5.57;;;;;;;;;;4970697;28;20553;-72
2023/06/08 04:26:08;;;;;;;21.52;6.15;;;12.60;99.90;;;;;;4962281;28;20035;-72
2023/06/08 04:28:35;;;;;;;13.30;5.90;;;;;;;;;;4955921;28;20487;-72
2023/06/08 04:31:01;;;;;;;20.35;5.68;;;;;;;;;;4939183;28;20390;-72
2023/06/08 04:33:28;;;;;;;15.07;5.28;;;;;;;;;;4938895;28;20114;-72
2023/06/08 04:35:54;;;;;;;14.00;5.63;;;;;;;;;;4970912;28;20407;-72
2023/06/08 04:38:21;;;;;;;19.25;5.68;;;;;;;;;;4960008;28;20039;-72
2023/06/08 04:40:53;;;;;;;16.88;5.50;;;;;;;;;;4969374;28;20038;-71
2023/06/08 04:43:20;;;;;;;;;;;12.80;99.90;;;;;;4956353;28;20035;-72
2023/06/08 04:45:51;;;;;;;14.95;5.35;;;;;;;;;;4915125;29;19929;-71
2023/06/08 04:48:17;;;;;;;19.65;5.70;;;;;;;;;;4953636;28;20506;-72
2023/06/08 04:50:45;;;;;;;16.83;5.28;;;;;;;;;;4953450;28;20047;-75
2023/06/08 04:53:11;;;;;;;16.52;5.30;;;;;;;;;;4922849;29;20055;-71
2023/06/08 04:55:38;;;;;;;15.63;5.60;;;;;;;;;;4953435;28;20077;-71
2023/06/08 04:58:04;;;;;;;13.48;5.45;;;;;;;;;;4921950;29;20040;-70
2023/06/08 05:00:29;;;;;;;15.63;5.00;;;11.80;99.90;;;;;;4953301;28;20039;-71
2023/06/08 05:02:56;;;;;;;15.90;5.43;;;;;;;;;;4952703;28;20078;-71
2023/06/08 05:05:22;;;;;;;16.02;4.80;;;;;;;;;;4937366;28;20126;-71
2023/06/08 05:07:48;;;;;;;15.20;5.35;;;;;;;;;;4934904;29;20044;-71
2023/06/08 05:10:13;;;;;;;11.57;4.68;;;12.10;99.90;;;;;;4953305;28;20082;-71
2023/06/08 05:12:40;;;;;;;16.55;4.95;;;;;;;;;;4954121;28;20496;-71
2023/06/08 05:15:06;;;;;;;15.27;4.93;;;14.10;99.90;;;;;;4954163;28;20047;-70
2023/06/08 05:17:32;;;;;;;10.82;4.70;;;;;;;;;;4953978;28;20043;-70
2023/06/08 05:19:58;;;;;;;14.05;5.18;;;;;;;;;;4938110;28;20595;-70
2023/06/08 05:22:24;;;;;;;18.98;5.10;;;;;;;;;;4954162;28;20035;-71
2023/06/08 05:24:50;;;;;;;18.60;4.93;;;;;;;;;;4954034;28;20105;-71
2023/06/08 05:27:16;;;;;;;13.02;4.63;;;;;;;;;;4953949;28;20039;-68
2023/06/08 05:29:42;;;;;;;17.02;4.85;;;;;;;;;;4954318;28;20059;-68
2023/06/08 05:32:08;;;;;;;18.92;4.90;;;;;;;;;;4953744;28;20046;-68
2023/06/08 05:34:34;;;;;;;18.33;5.20;;;;;;;;;;4954270;29;20340;-69
2023/06/08 05:37:00;;;;;;;20.80;5.18;;;;;;;;;;4953783;28;20070;-68
2023/06/08 05:39:26;;;;;;;14.95;5.22;;;;;;;;;;4953728;28;20043;-68
2023/06/08 05:41:52;;;;;;;15.82;5.20;;;;;;;;;;4954033;28;20431;-68
2023/06/08 05:44:18;;;;;;;17.77;4.30;;;;;;;;;;4966229;28;20077;-68
2023/06/08 05:46:45;;;;;;;12.68;4.70;;;;;;;;;;4982015;28;20050;-68
2023/06/08 05:49:11;;;;;;;16.42;4.80;;;;;;;;;;4976576;28;20434;-68
2023/06/08 05:51:37;;;;;;;15.07;4.63;;;;;;;;;;4970391;28;20042;-69
2023/06/08 05:54:36;;;;;;;16.20;4.80;;;13.40;99.90;;;;;;4963696;28;20516;-69
2023/06/08 05:57:03;;;;;;;14.85;4.78;;;;;;;;;;4954174;28;20050;-68
2023/06/08 05:59:28;;;;;;;20.75;4.90;;;14.50;99.90;;;;;;4974789;28;20053;-70
2023/06/08 06:01:54;;;;;;;12.52;4.63;;;13.90;99.90;;;;;;4992235;28;20484;-70
2023/06/08 06:04:20;;;;;;;12.55;4.72;;;;;;;;;;4992865;28;20108;-70
2023/06/08 06:06:46;;;;;;;20.50;6.10;;;;;;;;;;4976341;28;20141;-70
2023/06/08 06:09:12;;;;;;;17.90;5.22;;;;;;;;;;4976059;28;20042;-70
2023/06/08 06:11:39;;;;;;;14.38;5.10;;;;;;;;;;4976034;28;20133;-70
2023/06/08 06:14:05;;;;;;;14.98;4.82;;;;;;;;;;4975901;28;20372;-70
2023/06/08 06:16:31;;;;;;;16.88;4.82;;;;;;;;;;4960300;28;20454;-70
2023/06/08 06:18:58;;;;;;;21.55;5.68;;;13.50;99.90;;;;;;4975872;28;20137;-71
2023/06/08 06:21:24;;;;;;;20.08;4.93;;;;;;;;;;4976195;28;20128;-71
2023/06/08 06:23:50;;;;;;;19.55;4.63;;;;;;;;;;4975965;28;20042;-71
2023/06/08 06:26:16;;;;;;;13.45;5.30;;;;;;;;;;4993346;28;20038;-71
2023/06/08 06:28:42;;;;;;;22.70;5.72;;;;;;;;;;4975724;28;20491;-71
2023/06/08 06:31:08;;;;;;;15.10;4.60;;;;;;;;;;4975711;28;20050;-71
2023/06/08 06:33:34;;;;;;;16.85;4.05;;;;;;;;;;4976199;28;20042;-71
2023/06/08 06:36:00;;;;;;;17.52;4.22;;;;;;;;;;4975762;28;20078;-71
2023/06/08 06:38:27;;;;;;;16.20;4.68;;;;;;;;;;4975536;28;20042;-72
2023/06/08 06:40:53;;;;;;;12.48;4.65;;;;;;;;;;4975654;28;20038;-71
2023/06/08 06:43:22;;;;;;;11.90;4.43;;;15.00;99.90;;;;;;4991868;28;20038;-72
2023/06/08 06:45:52;;;;;;;19.90;5.00;;;15.10;99.90;;;;;;4975545;28;20058;-71
2023/06/08 06:48:21;;;;;;;17.35;5.13;;;;;;;;;;4991863;28;20129;-72
2023/06/08 06:50:47;;;;;;;18.45;5.03;;;14.10;99.90;;;;;;4975638;28;20042;-72
2023/06/08 06:53:14;;;;;;;14.88;4.90;;;;;;;;;;4959588;28;20038;-71
2023/06/08 06:55:41;;;;;;;18.25;4.70;;;;;;;;;;4975776;28;20106;-71
2023/06/08 06:58:07;;;;;;;17.00;5.07;;;;;;;;;;4975556;28;20046;-71
2023/06/08 07:00:37;;;;;;;12.65;5.13;;;;;;;;;;4975870;28;20039;-71
2023/06/08 07:03:04;;;;;;;14.85;4.88;;;14.30;99.90;;;;;;4995596;28;20154;-71
2023/06/08 07:05:31;;;;;;;19.17;4.30;;;;;;;;;;4963019;28;20121;-72
2023/06/08 07:07:57;;;;;;;11.63;4.50;;;;;;;;;;4979379;28;20074;-71
2023/06/08 07:10:23;;;;;;;12.70;4.07;;;;;;;;;;4978927;28;20049;-71
2023/06/08 07:12:49;;;;;;;14.90;4.90;;;;;;;;;;4979059;28;20433;-71
2023/06/08 07:15:17;;;;;;;11.45;4.18;;;;;;;;;;4978857;28;20078;-71
2023/06/08 07:17:44;;;;;;;21.33;5.28;;;;;;;;;;4995008;28;20050;-71
2023/06/08 07:20:10;;;;;;;14.50;3.83;;;14.90;99.90;;;;;;4994912;28;20092;-71
2023/06/08 07:22:36;;;;;;;20.05;4.80;;;;;;;;;;4978711;28;20038;-71
2023/06/08 07:25:04;;;;;;;14.18;4.47;;;;;;;;;;4978573;28;20484;-71
2023/06/08 07:27:30;;;;;;;10.65;4.07;;;14.30;99.90;;;;;;4994750;28;20069;-71
2023/06/08 07:29:56;;;;;;;13.93;4.75;;;;;;;;;;4978654;28;20050;-71
2023/06/08 07:32:26;;;;;;;18.17;4.80;;;;;;;;;;4978592;28;20048;-71
2023/06/08 07:34:52;;;;;;;13.20;4.22;;;;;;;;;;4994694;28;20051;-71
2023/06/08 07:37:18;;;;;;;14.88;4.30;;;;;;;;;;4978521;28;20542;-72
2023/06/08 07:39:44;;;;;;;15.82;4.63;;;;;;;;;;4978379;28;20042;-71
2023/06/08 07:42:11;;;;;;;16.75;4.85;;;;;;;;;;4978637;28;20038;-72
2023/06/08 07:44:37;;;;;;;13.48;4.72;;;;;;;;;;4978135;28;20498;-68
2023/06/08 07:47:03;;;;;;;11.80;4.55;;;;;;;;;;4978158;28;20049;-69
2023/06/08 07:49:29;;;;;;;13.98;4.13;;;15.10;99.90;;;;;;4977279;28;20042;-68
2023/06/08 07:51:55;;;;;;;14.40;4.85;;;;;;;;;;4962175;28;20049;-68
2023/06/08 07:54:22;;;;;;;12.18;4.43;;;;;;;;;;4978358;28;20116;-69
2023/06/08 07:56:48;;;;;;;16.20;4.80;;;16.00;99.90;;;;;;4978130;28;20406;-69
2023/06/08 07:59:15;;;;;;;16.27;4.53;;;15.30;99.90;;;;;;4976800;28;20589;-68
2023/06/08 08:01:42;;;;;;;13.85;4.47;;;16.00;99.90;;;;;;4977967;28;20034;-68
2023/06/08 08:04:08;;;;;;;12.68;4.22;;;;;;;;;;4978453;28;20117;-68
2023/06/08 08:06:34;;;;;;;18.55;4.22;;;;;;;;;;4961996;28;20502;-68
2023/06/08 08:09:00;;;;;;;15.95;4.43;;;;;;;;;;4977896;28;20042;-68
2023/06/08 08:11:27;;;;;;;13.55;4.38;;;15.20;99.90;;;;;;4978029;28;20149;-68
2023/06/08 08:13:55;;;;;;;19.73;4.65;;;14.30;99.90;;;;;;4977131;28;20112;-68
2023/06/08 08:16:21;;;;;;;14.02;4.97;;;;;;;;;;4977891;28;20398;-69
2023/06/08 08:18:47;;;;;;;12.55;4.47;;;;;;;;;;4961417;28;20052;-68
2023/06/08 08:21:13;;;;;;;20.23;5.30;;;;;;;;;;4977626;28;20049;-69
2023/06/08 08:23:39;;;;;;;12.30;4.50;;;16.30;99.90;;;;;;4977990;28;20038;-68
2023/06/08 08:26:05;;;;;;;14.32;4.53;;;;;;;;;;4977649;28;20629;-69
2023/06/08 08:28:31;;;;;;;12.55;4.57;;;16.40;99.90;;;;;;4977562;28;20042;-68
2023/06/08 08:30:57;;;;;;;12.63;4.97;;;16.00;99.90;;;;;;4977759;28;20105;-68
2023/06/08 08:33:24;;;;;;;13.82;4.85;;;15.90;99.90;;;;;;4977567;28;20042;-68
2023/06/08 08:35:50;;;;;;;12.85;4.47;;;;;;;;;;4994869;28;20386;-68
2023/06/08 08:38:16;;;;;;;13.60;4.55;;;15.80;99.90;;;;;;4977267;28;20136;-68
2023/06/08 08:40:42;;;;;;;16.70;5.07;;;;;;;;;;4977397;28;20066;-68
2023/06/08 08:43:08;;;;;;;14.20;4.32;;;;;;;;;;4977022;28;20550;-68
2023/06/08 08:45:35;;;;;;;14.57;4.80;;;;;;;;;;4973682;28;20078;-68
2023/06/08 08:48:01;;;;;;;15.30;4.82;;;;;;;;;;4973968;28;20047;-68
2023/06/08 08:50:33;;;;;;;14.77;4.97;;;16.00;99.90;;;;;;4973839;28;20061;-68
2023/06/08 08:53:00;;;;;;;13.00;4.95;;;15.60;99.90;;;;;;4974090;28;20047;-71
2023/06/08 08:55:27;;;;;;;14.13;4.85;;;16.10;99.90;;;;;;4973807;28;20046;-71
2023/06/08 08:58:00;;;;;;;10.02;4.00;;;17.00;99.90;;;;;;4973939;28;20045;-71
2023/06/08 09:00:27;;;;;;;11.55;4.45;;;16.40;99.90;;;;;;4973677;28;20344;-71
2023/06/08 09:02:54;;;;;;;10.68;4.25;;;17.10;99.90;;;;;;4957793;28;20522;-71
2023/06/08 09:05:20;;;;;;;16.17;4.60;;;;;;;;;;4973555;28;20042;-71
2023/06/08 09:07:46;;;;;;;15.85;4.22;;;;;;;;;;4973927;28;20038;-71
2023/06/08 09:10:12;;;;;;;12.35;3.95;;;;;;;;;;4957731;28;20050;-71
2023/06/08 09:12:40;;;;;;;16.05;4.70;;;16.80;99.90;;;;;;4973674;28;20053;-71
2023/06/08 09:15:07;;;;;;;9.65;3.55;;;17.50;99.90;;;;;;4973366;28;20077;-71
2023/06/08 09:17:37;;;;;;;11.57;3.75;;;;;;;;;;4973433;28;20046;-72
2023/06/08 09:20:08;;;;;;;8.60;3.70;;;16.60;99.90;;;;;;4973348;28;20562;-69
2023/06/08 09:22:36;;;;;;;11.13;3.80;;;;;;;;;;4958184;28;20387;-69
2023/06/08 09:25:03;;;;;;;13.77;4.22;;;;;;;;;;4973158;28;20047;-70
2023/06/08 09:27:31;;;;;;;13.63;3.90;;;;;;;;;;4957074;28;20491;-71
2023/06/08 09:29:57;;;;;;;11.18;4.13;;;;;;;;;;4973328;28;20130;-71
2023/06/08 09:32:31;;;;;;;11.70;3.65;;;15.90;99.90;;;;;;4973298;28;20049;-68
2023/06/08 09:35:02;;;;;;;11.43;4.03;;;17.00;99.90;;;;;;4973320;28;20039;-69
2023/06/08 09:37:30;;;;;;;11.18;3.80;;;17.10;99.90;;;;;;4973392;28;20046;-69
2023/06/08 09:39:56;;;;;;;9.77;3.90;;;;;;;;;;4973080;28;20049;-68
2023/06/08 09:42:22;;;;;;;9.23;4.15;;;;;;;;;;4957390;28;20434;-67
2023/06/08 09:44:48;;;;;;;11.50;3.67;;;;;;;;;;4982251;28;20050;-67
2023/06/08 09:47:25;;;;;;;21.20;4.72;;;;;;;;;;4976347;28;20050;-68
2023/06/08 09:49:52;;;;;;;15.32;4.00;;;17.30;99.90;;;;;;4976329;28;20055;-68
2023/06/08 09:52:24;;;;;;;11.68;4.25;;;18.20;99.90;;;;;;4976481;28;20427;-68
2023/06/08 09:54:51;;;;;;;11.02;3.95;;;17.70;99.90;;;;;;4976022;28;20421;-68
2023/06/08 09:57:20;;;;;;;11.98;3.63;;;;;;;;;;4976194;28;20592;-68
2023/06/08 09:59:47;;;;;;;14.20;4.70;;;17.80;99.90;;;;;;4976176;28;20042;-68
2023/06/08 10:02:33;;;;;;;12.10;3.70;;;18.60;99.90;;;;;;4976333;28;20165;-68
2023/06/08 10:05:10;;;;;;;12.63;4.25;;;17.70;99.90;;;;;;4976372;28;20430;-68
2023/06/08 10:07:37;;;;;;;11.20;3.90;;;18.20;99.90;;;;;;4959960;28;20534;-68
2023/06/08 10:10:17;;;;;;;13.68;4.05;;;17.80;99.90;;;;;;4975953;28;20125;-69
2023/06/08 10:12:44;;;;;;;16.27;4.70;;;17.90;99.90;;;;;;4959751;28;20498;-68
2023/06/08 10:15:10;;;;;;;11.25;5.07;;;18.30;99.90;;;;;;4975849;28;20042;-68
2023/06/08 10:17:38;;;;;;;13.93;3.95;;;18.20;99.90;;;;;;4959956;28;20054;-68
2023/06/08 10:20:05;;;;;;;11.35;4.03;;;18.60;99.90;;;;;;4975774;28;20050;-68
2023/06/08 10:22:32;;;;;;;12.55;5.72;;;17.70;99.90;;;;;;4975876;28;20506;-68
2023/06/08 10:24:58;;;;;;;11.80;4.30;;;19.20;99.90;;;;;;4976059;28;20369;-68
2023/06/08 10:27:24;;;;;;;13.27;5.63;;;;;;;;;;4976135;28;20042;-68
2023/06/08 10:30:08;;;;;;;16.77;4.65;;;19.00;99.90;;;;;;4976183;28;20181;-68
2023/06/08 10:32:42;;;;;;;12.93;5.07;;;18.00;99.90;;;;;;4976020;28;20050;-69
2023/06/08 10:35:10;;;;;;;15.57;5.18;;;18.50;99.90;;;;;;4976138;28;20049;-68
2023/06/08 10:37:37;;;;;;;10.63;3.95;;;18.70;99.90;;;;;;4979128;28;20038;-69
2023/06/08 10:40:11;;;;;;;12.88;5.18;;;18.80;99.90;;;;;;4963435;28;20411;-68
2023/06/08 10:42:38;;;;;;;13.90;4.00;;;;;;;;;;4978986;28;20479;-68
2023/06/08 10:45:05;;;;;;;9.68;4.18;;;19.40;99.90;;;;;;4975898;28;20055;-68
2023/06/08 10:47:35;;;;;;;12.23;4.28;;;19.30;99.90;;;;;;4960168;28;20054;-68
2023/06/08 10:50:04;;;;;;;12.60;4.20;;;19.30;99.90;;;;;;4976036;28;20046;-68
2023/06/08 10:52:40;;;;;;;10.43;4.40;;;19.50;99.90;;;;;;4976410;28;20074;-71
2023/06/08 10:55:11;;;;;;;10.52;4.13;;;19.40;99.90;;;;;;4976249;28;20122;-71
2023/06/08 10:57:41;;;;;;;16.65;4.07;;;19.80;99.90;;;;;;4975916;28;20479;-71
2023/06/08 11:00:26;;;;;;;11.02;4.07;;;20.00;99.90;;;;;;4959929;28;20376;-71
2023/06/08 11:02:53;;;;;;;11.70;4.25;;;19.90;99.90;;;;;;4976085;28;20104;-72
2023/06/08 11:05:20;;;;;;;10.60;3.45;;;20.00;99.90;;;;;;4975987;28;20042;-72
2023/06/08 11:07:46;;;;;;;9.98;3.60;;;20.50;99.90;;;;;;4959682;28;20050;-69
2023/06/08 11:10:12;;;;;;;7.30;3.03;;;19.10;99.90;;;;;;4975777;28;20051;-72
2023/06/08 11:12:38;;;;;;;9.55;3.60;;;;;;;;;;4975671;28;20070;-72
2023/06/08 11:15:05;;;;;;;9.43;3.38;;;18.90;99.90;;;;;;4975703;28;20097;-72
2023/06/08 11:17:38;;;;;;;12.77;3.50;;;19.70;99.90;;;;;;4975496;28;20042;-72
2023/06/08 11:20:07;;;;;;;10.95;2.90;;;19.70;99.90;;;;;;4975433;28;20043;-72
2023/06/08 11:22:33;;;;;;;11.48;3.47;;;;;;;;;;4975553;28;20101;-72
2023/06/08 11:25:01;;;;;;;6.75;3.25;;;19.70;99.90;;;;;;4975481;28;20057;-72
2023/06/08 11:27:26;;;;;;;10.32;2.95;;;18.80;99.90;;;;;;4975391;28;20049;-71
2023/06/08 11:29:52;;;;;;;11.00;3.60;;;18.90;99.90;;;;;;4975761;28;20050;-72
2023/06/08 11:32:18;;;;;;;10.43;4.53;;;;;;;;;;4975477;28;20509;-72
2023/06/08 11:34:45;;;;;;;16.10;4.32;;;20.00;99.90;;;;;;4975362;28;20082;-72
2023/06/08 11:37:17;;;;;;;11.68;4.20;;;20.20;99.90;;;;;;4975191;28;20129;-71
2023/06/08 11:39:44;;;;;;;12.05;4.30;;;19.70;99.90;;;;;;4975110;28;20403;-72
2023/06/08 11:42:10;;;;;;;15.95;4.10;;;19.10;99.90;;;;;;4975048;28;20039;-73
2023/06/08 11:44:36;;;;;;;11.63;3.80;;;;;;;;;;4976964;28;20046;-72
2023/06/08 11:47:03;;;;;;;11.82;4.53;;;20.30;99.90;;;;;;4978078;28;20081;-72
2023/06/08 11:49:58;;;;;;;10.57;3.80;;;19.90;99.90;;;;;;4978407;28;20053;-72
2023/06/08 11:52:24;;;;;;;9.90;3.60;;;20.50;99.90;;;;;;4978141;28;20509;-72
2023/06/08 11:54:54;;;;;;;8.63;3.35;;;20.50;99.90;;;;;;4978159;28;20096;-72
2023/06/08 11:57:21;;;;;;;10.63;3.33;;;21.00;99.90;;;;;;4978199;28;20054;-72
2023/06/08 11:59:47;;;;;;;12.85;3.92;;;20.90;99.90;;;;;;4961988;28;20042;-72
2023/06/08 12:02:13;;;;;;;9.55;3.33;;;20.50;99.90;;;;;;4978377;28;20080;-72
2023/06/08 12:04:40;;;;;;;9.45;2.78;;;;;;;;;;4978383;28;20371;-72
2023/06/08 12:07:10;;;;;;;8.38;2.65;;;20.30;99.90;;;;;;4978070;28;20042;-72
2023/06/08 12:09:37;;;;;;;13.95;2.80;;;21.20;99.90;;;;;;4977898;28;20402;-72
2023/06/08 12:12:10;;;;;;;11.90;3.00;;;21.30;99.90;;;;;;4977973;28;20042;-72
2023/06/08 12:14:42;;;;;;;9.77;2.97;;;21.40;99.90;;;;;;4978248;28;20047;-72
2023/06/08 12:17:08;;;;;;;9.13;2.67;;;20.10;99.90;;;;;;4978078;28;20085;-72
2023/06/08 12:19:34;;;;;;;7.53;2.45;;;20.70;99.90;;;;;;4977653;28;20521;-72
2023/06/08 12:22:00;;;;;;;9.98;2.60;;;21.30;99.90;;;;;;4977873;28;20078;-72
2023/06/08 12:24:26;;;;;;;8.27;2.90;;;20.70;99.90;;;;;;4978009;28;20042;-72
2023/06/08 12:26:52;;;;;;;7.75;2.60;;;20.80;99.90;;;;;;4945450;28;20528;-72
2023/06/08 12:29:18;;;;;;;12.50;2.80;;;20.30;99.90;;;;;;4977851;28;20077;-72
2023/06/08 12:31:43;;;;;;;11.65;2.47;;;21.60;99.90;;;;;;4977369;28;20054;-73
2023/06/08 12:34:10;;;;;;;6.85;2.78;;;;;;;;;;4977596;28;20129;-72
2023/06/08 12:36:35;;;;;;;9.45;2.63;;;21.70;99.90;;;;;;4961315;28;20486;-72
2023/06/08 12:39:02;;;;;;;6.97;2.60;;;20.40;99.90;;;;;;4961384;28;20050;-72
2023/06/08 12:41:28;;;;;;;10.20;3.15;;;;;;;;;;4977543;28;20046;-72
2023/06/08 12:43:54;;;;;;;9.40;2.85;;;;;;;;;;4961152;28;20039;-73
2023/06/08 12:46:21;;;;;;;10.75;2.60;;;21.50;99.90;;;;;;4961070;28;20060;-72
2023/06/08 12:48:48;;;;;;;11.80;3.05;;;21.80;99.90;;;;;;4977485;28;20080;-73
2023/06/08 12:51:17;;;;;;;12.73;3.28;;;21.00;99.90;;;;;;4977092;28;20046;-73
2023/06/08 12:53:46;;;;;;;9.18;2.70;;;21.50;99.90;;;;;;4977135;28;20562;-72
2023/06/08 12:56:11;;;;;;;7.68;2.83;;;21.60;99.90;;;;;;4976928;28;20510;-73
2023/06/08 12:58:37;;;;;;;10.80;2.70;;;;;;;;;;4976436;28;20129;-72
2023/06/08 13:01:03;;;;;;;11.05;3.10;;;21.50;99.90;;;;;;4977508;28;20124;-73
2023/06/08 13:03:29;;;;;;;8.88;3.22;;;;;;;;;;4960839;28;20486;-73
2023/06/08 13:05:55;;;;;;;9.32;3.00;;;21.60;99.90;;;;;;4977392;28;20382;-73
2023/06/08 13:08:20;;;;;;;8.93;3.35;;;21.50;99.90;;;;;;4976990;28;20469;-73
2023/06/08 13:10:46;;;;;;;14.70;2.88;;;;;;;;;;4960731;28;20092;-73
2023/06/08 13:13:12;;;;;;;9.15;3.00;;;20.40;99.90;;;;;;4976707;28;20076;-72
2023/06/08 13:15:38;;;;;;;7.50;3.03;;;21.80;99.90;;;;;;4976992;28;20046;-72
2023/06/08 13:18:08;;;;;;;8.68;3.20;;;22.00;99.90;;;;;;4960562;28;20039;-73
2023/06/08 13:20:34;;;;;;;10.57;3.40;;;22.10;99.90;;;;;;4976510;28;20065;-73
2023/06/08 13:23:00;;;;;;;9.05;3.13;;;21.00;99.90;;;;;;4960641;28;20113;-73
2023/06/08 13:25:27;;;;;;;6.07;2.88;;;;;;;;;;4960760;28;20193;-73
2023/06/08 13:27:53;;;;;;;12.45;3.60;;;21.40;99.90;;;;;;4976585;28;20046;-73
2023/06/08 13:30:21;;;;;;;8.25;2.90;;;;;;;;;;4976558;28;20046;-72
2023/06/08 13:32:47;;;;;;;10.20;3.30;;;21.90;99.90;;;;;;4960528;28;20066;-73
2023/06/08 13:35:13;;;;;;;6.10;2.72;;;21.50;99.90;;;;;;4976553;28;20031;-72
2023/06/08 13:37:39;;;;;;;9.27;3.00;;;21.60;99.90;;;;;;4960350;28;20128;-72
2023/06/08 13:40:05;;;;;;;8.43;3.08;;;21.40;99.90;;;;;;4976256;28;20126;-72
2023/06/08 13:42:32;;;;;;;11.85;3.85;;;;;;;;;;4976119;28;20053;-72
2023/06/08 13:44:59;;;;;;;8.70;3.03;;;;;;;;;;4960019;28;20050;-72